sensor_id;sensor_type;location;lat;lon;timestamp;pressure;altitude;pressure_sealevel;temperature;humidity
48244;BME280;34053;51.088;6.572;2023-08-07T00:01:31;100686.00;;;13.66;88.51
48244;BME280;34053;51.088;6.572;2023-08-07T00:04:21;100691.91;;;13.73;87.76
48244;BME280;34053;51.088;6.572;2023-08-07T00:07:12;100688.34;;;13.74;87.68
48244;BME280;34053;51.088;6.572;2023-08-07T00:10:03;100694.38;;;13.76;87.36
48244;BME280;34053;51.088;6.572;2023-08-07T00:12:54;100693.47;;;13.77;87.37
48244;BME280;34053;51.088;6.572;2023-08-07T00:15:45;100690.06;;;13.75;87.81
48244;BME280;34053;51.088;6.572;2023-08-07T00:18:36;100695.56;;;13.69;87.95
48244;BME280;34053;51.088;6.572;2023-08-07T00:21:27;100688.94;;;13.81;87.41
48244;BME280;34053;51.088;6.572;2023-08-07T00:24:17;100688.94;;;13.81;87.20
48244;BME280;34053;51.088;6.572;2023-08-07T00:27:08;100692.88;;;13.71;88.16
48244;BME280;34053;51.088;6.572;2023-08-07T00:30:01;100687.81;;;13.66;88.63
48244;BME280;34053;51.088;6.572;2023-08-07T00:32:51;100695.81;;;13.63;89.06
48244;BME280;34053;51.088;6.572;2023-08-07T00:35:42;100693.63;;;13.74;87.92
48244;BME280;34053;51.088;6.572;2023-08-07T00:38:33;100688.91;;;13.60;89.71
48244;BME280;34053;51.088;6.572;2023-08-07T00:41:24;100681.97;;;13.58;89.42
48244;BME280;34053;51.088;6.572;2023-08-07T00:44:14;100691.59;;;13.59;88.83
48244;BME280;34053;51.088;6.572;2023-08-07T00:47:06;100689.44;;;13.46;90.50
48244;BME280;34053;51.088;6.572;2023-08-07T00:49:58;100692.00;;;13.48;89.96
48244;BME280;34053;51.088;6.572;2023-08-07T00:52:49;100685.72;;;13.52;89.56
48244;BME280;34053;51.088;6.572;2023-08-07T00:55:41;100699.69;;;13.54;89.32
48244;BME280;34053;51.088;6.572;2023-08-07T00:58:32;100702.69;;;13.67;88.30
48244;BME280;34053;51.088;6.572;2023-08-07T01:01:25;100704.47;;;13.66;88.32
48244;BME280;34053;51.088;6.572;2023-08-07T01:04:15;100704.78;;;13.59;89.12
48244;BME280;34053;51.088;6.572;2023-08-07T01:07:06;100705.56;;;13.38;89.62
48244;BME280;34053;51.088;6.572;2023-08-07T01:09:57;100707.91;;;13.46;89.70
48244;BME280;34053;51.088;6.572;2023-08-07T01:13:06;100711.09;;;13.54;89.10
48244;BME280;34053;51.088;6.572;2023-08-07T01:16:02;100711.63;;;13.63;88.27
48244;BME280;34053;51.088;6.572;2023-08-07T01:19:00;100714.03;;;13.47;88.91
48244;BME280;34053;51.088;6.572;2023-08-07T01:22:27;100706.72;;;13.53;89.07
48244;BME280;34053;51.088;6.572;2023-08-07T01:25:17;100711.72;;;13.61;88.03
48244;BME280;34053;51.088;6.572;2023-08-07T01:28:19;100708.63;;;13.50;88.40
48244;BME280;34053;51.088;6.572;2023-08-07T01:31:17;100721.94;;;13.47;87.96
48244;BME280;34053;51.088;6.572;2023-08-07T01:34:12;100717.41;;;13.50;88.30
48244;BME280;34053;51.088;6.572;2023-08-07T01:37:05;100702.19;;;13.57;88.10
48244;BME280;34053;51.088;6.572;2023-08-07T01:39:59;100705.19;;;13.70;87.25
48244;BME280;34053;51.088;6.572;2023-08-07T01:42:51;100713.22;;;13.45;88.52
48244;BME280;34053;51.088;6.572;2023-08-07T01:45:41;100708.53;;;13.53;87.76
48244;BME280;34053;51.088;6.572;2023-08-07T01:48:32;100706.47;;;13.60;87.16
48244;BME280;34053;51.088;6.572;2023-08-07T01:51:23;100711.34;;;13.48;87.67
48244;BME280;34053;51.088;6.572;2023-08-07T01:54:14;100716.34;;;13.54;87.02
48244;BME280;34053;51.088;6.572;2023-08-07T01:57:05;100712.81;;;13.56;86.89
48244;BME280;34053;51.088;6.572;2023-08-07T01:59:56;100712.25;;;13.47;87.72
48244;BME280;34053;51.088;6.572;2023-08-07T02:02:47;100736.78;;;13.49;87.66
48244;BME280;34053;51.088;6.572;2023-08-07T02:05:38;100725.50;;;13.46;88.00
48244;BME280;34053;51.088;6.572;2023-08-07T02:08:29;100733.91;;;13.56;88.16
48244;BME280;34053;51.088;6.572;2023-08-07T02:11:20;100732.50;;;13.47;88.67
48244;BME280;34053;51.088;6.572;2023-08-07T02:14:11;100741.34;;;13.44;88.95
48244;BME280;34053;51.088;6.572;2023-08-07T02:17:01;100743.03;;;13.47;88.62
48244;BME280;34053;51.088;6.572;2023-08-07T02:19:52;100739.84;;;13.38;89.38
48244;BME280;34053;51.088;6.572;2023-08-07T02:22:43;100739.84;;;13.37;89.19
48244;BME280;34053;51.088;6.572;2023-08-07T02:25:34;100741.00;;;13.30;89.70
48244;BME280;34053;51.088;6.572;2023-08-07T02:28:25;100738.84;;;13.41;89.04
48244;BME280;34053;51.088;6.572;2023-08-07T02:31:16;100739.44;;;13.48;88.62
48244;BME280;34053;51.088;6.572;2023-08-07T02:34:06;100746.84;;;13.38;88.96
48244;BME280;34053;51.088;6.572;2023-08-07T02:36:58;100740.44;;;13.45;88.81
48244;BME280;34053;51.088;6.572;2023-08-07T02:39:49;100741.50;;;13.41;89.28
48244;BME280;34053;51.088;6.572;2023-08-07T02:42:40;100746.34;;;13.52;88.41
48244;BME280;34053;51.088;6.572;2023-08-07T02:45:30;100745.09;;;13.61;87.87
48244;BME280;34053;51.088;6.572;2023-08-07T02:48:21;100748.41;;;13.44;88.72
48244;BME280;34053;51.088;6.572;2023-08-07T02:51:12;100746.59;;;13.46;89.05
48244;BME280;34053;51.088;6.572;2023-08-07T02:54:03;100739.59;;;13.45;88.67
48244;BME280;34053;51.088;6.572;2023-08-07T02:56:54;100743.69;;;13.52;88.24
48244;BME280;34053;51.088;6.572;2023-08-07T02:59:44;100740.34;;;13.48;88.52
48244;BME280;34053;51.088;6.572;2023-08-07T03:02:35;100736.16;;;13.43;88.16
48244;BME280;34053;51.088;6.572;2023-08-07T03:05:26;100736.38;;;13.36;88.53
48244;BME280;34053;51.088;6.572;2023-08-07T03:08:17;100742.41;;;13.40;88.33
48244;BME280;34053;51.088;6.572;2023-08-07T03:11:08;100743.47;;;13.34;88.20
48244;BME280;34053;51.088;6.572;2023-08-07T03:13:59;100737.44;;;13.31;88.17
48244;BME280;34053;51.088;6.572;2023-08-07T03:16:50;100748.91;;;13.30;88.23
48244;BME280;34053;51.088;6.572;2023-08-07T03:19:43;100743.94;;;13.22;88.87
48244;BME280;34053;51.088;6.572;2023-08-07T03:22:34;100739.50;;;13.22;88.92
48244;BME280;34053;51.088;6.572;2023-08-07T03:25:24;100748.22;;;13.25;88.56
48244;BME280;34053;51.088;6.572;2023-08-07T03:28:16;100743.88;;;13.23;88.90
48244;BME280;34053;51.088;6.572;2023-08-07T03:31:06;100745.13;;;13.37;87.64
48244;BME280;34053;51.088;6.572;2023-08-07T03:33:57;100746.00;;;13.37;88.63
48244;BME280;34053;51.088;6.572;2023-08-07T03:36:49;100752.78;;;13.45;87.49
48244;BME280;34053;51.088;6.572;2023-08-07T03:39:39;100754.84;;;13.35;87.60
48244;BME280;34053;51.088;6.572;2023-08-07T03:42:30;100752.44;;;13.29;88.28
48244;BME280;34053;51.088;6.572;2023-08-07T03:45:21;100747.19;;;13.29;88.41
48244;BME280;34053;51.088;6.572;2023-08-07T03:48:12;100753.19;;;13.32;88.34
48244;BME280;34053;51.088;6.572;2023-08-07T03:51:06;100755.66;;;13.37;88.19
48244;BME280;34053;51.088;6.572;2023-08-07T03:54:01;100766.84;;;13.20;89.72
48244;BME280;34053;51.088;6.572;2023-08-07T03:56:52;100766.78;;;13.21;89.62
48244;BME280;34053;51.088;6.572;2023-08-07T03:59:42;100760.25;;;13.32;88.81
48244;BME280;34053;51.088;6.572;2023-08-07T04:02:33;100766.72;;;13.23;88.83
48244;BME280;34053;51.088;6.572;2023-08-07T04:05:24;100748.22;;;13.25;89.73
48244;BME280;34053;51.088;6.572;2023-08-07T04:08:15;100759.03;;;13.17;90.45
48244;BME280;34053;51.088;6.572;2023-08-07T04:11:06;100754.94;;;13.10;91.24
48244;BME280;34053;51.088;6.572;2023-08-07T04:13:58;100757.97;;;13.22;89.99
48244;BME280;34053;51.088;6.572;2023-08-07T04:16:49;100757.28;;;13.17;90.37
48244;BME280;34053;51.088;6.572;2023-08-07T04:19:40;100756.13;;;13.01;91.35
48244;BME280;34053;51.088;6.572;2023-08-07T04:22:30;100761.28;;;13.04;91.60
48244;BME280;34053;51.088;6.572;2023-08-07T04:25:21;100755.78;;;13.10;90.94
48244;BME280;34053;51.088;6.572;2023-08-07T04:28:12;100768.66;;;13.18;90.34
48244;BME280;34053;51.088;6.572;2023-08-07T04:31:03;100771.13;;;13.22;89.38
48244;BME280;34053;51.088;6.572;2023-08-07T04:33:54;100768.16;;;13.08;90.76
48244;BME280;34053;51.088;6.572;2023-08-07T04:36:44;100760.50;;;13.26;90.04
48244;BME280;34053;51.088;6.572;2023-08-07T04:39:35;100763.88;;;13.05;90.72
48244;BME280;34053;51.088;6.572;2023-08-07T04:42:27;100775.16;;;13.09;91.22
48244;BME280;34053;51.088;6.572;2023-08-07T04:45:18;100773.19;;;13.14;90.07
48244;BME280;34053;51.088;6.572;2023-08-07T04:48:09;100772.63;;;13.06;90.93
48244;BME280;34053;51.088;6.572;2023-08-07T04:50:59;100765.84;;;12.99;91.24
48244;BME280;34053;51.088;6.572;2023-08-07T04:53:50;100766.78;;;12.98;91.44
48244;BME280;34053;51.088;6.572;2023-08-07T04:56:41;100760.19;;;13.10;90.59
48244;BME280;34053;51.088;6.572;2023-08-07T04:59:34;100767.41;;;13.04;90.40
48244;BME280;34053;51.088;6.572;2023-08-07T05:02:26;100769.00;;;13.09;89.76
48244;BME280;34053;51.088;6.572;2023-08-07T05:05:17;100771.00;;;13.02;89.97
48244;BME280;34053;51.088;6.572;2023-08-07T05:08:11;100771.81;;;13.04;89.23
48244;BME280;34053;51.088;6.572;2023-08-07T05:11:02;100773.59;;;13.03;89.23
48244;BME280;34053;51.088;6.572;2023-08-07T05:13:52;100777.78;;;13.09;88.58
48244;BME280;34053;51.088;6.572;2023-08-07T05:16:43;100779.19;;;12.94;89.22
48244;BME280;34053;51.088;6.572;2023-08-07T05:19:34;100777.97;;;13.03;88.53
48244;BME280;34053;51.088;6.572;2023-08-07T05:22:25;100774.34;;;13.07;87.81
48244;BME280;34053;51.088;6.572;2023-08-07T05:25:16;100772.94;;;12.97;88.27
48244;BME280;34053;51.088;6.572;2023-08-07T05:28:07;100771.53;;;13.12;87.76
48244;BME280;34053;51.088;6.572;2023-08-07T05:30:58;100765.94;;;12.97;87.37
48244;BME280;34053;51.088;6.572;2023-08-07T05:33:48;100776.75;;;13.13;87.43
48244;BME280;34053;51.088;6.572;2023-08-07T05:36:39;100776.34;;;13.24;87.10
48244;BME280;34053;51.088;6.572;2023-08-07T05:39:32;100779.22;;;13.18;87.01
48244;BME280;34053;51.088;6.572;2023-08-07T05:42:23;100793.44;;;13.14;87.04
48244;BME280;34053;51.088;6.572;2023-08-07T05:45:14;100790.81;;;13.12;87.76
48244;BME280;34053;51.088;6.572;2023-08-07T05:48:06;100792.66;;;13.10;86.83
48244;BME280;34053;51.088;6.572;2023-08-07T05:50:57;100800.19;;;13.21;86.08
48244;BME280;34053;51.088;6.572;2023-08-07T05:53:48;100794.16;;;13.17;85.97
48244;BME280;34053;51.088;6.572;2023-08-07T05:56:40;100803.72;;;13.20;86.32
48244;BME280;34053;51.088;6.572;2023-08-07T05:59:31;100792.44;;;13.16;86.09
48244;BME280;34053;51.088;6.572;2023-08-07T06:02:25;100797.91;;;13.10;86.47
48244;BME280;34053;51.088;6.572;2023-08-07T06:05:15;100797.59;;;13.19;86.34
48244;BME280;34053;51.088;6.572;2023-08-07T06:08:07;100799.06;;;13.27;86.73
48244;BME280;34053;51.088;6.572;2023-08-07T06:10:57;100803.66;;;13.21;86.12
48244;BME280;34053;51.088;6.572;2023-08-07T06:13:48;100813.03;;;13.30;86.49
48244;BME280;34053;51.088;6.572;2023-08-07T06:16:39;100807.09;;;13.23;86.33
48244;BME280;34053;51.088;6.572;2023-08-07T06:19:30;100811.63;;;13.20;86.42
48244;BME280;34053;51.088;6.572;2023-08-07T06:22:21;100808.84;;;13.25;86.33
48244;BME280;34053;51.088;6.572;2023-08-07T06:25:11;100816.25;;;13.13;87.16
48244;BME280;34053;51.088;6.572;2023-08-07T06:28:02;100820.94;;;13.05;88.18
48244;BME280;34053;51.088;6.572;2023-08-07T06:31:00;100827.84;;;13.09;88.12
48244;BME280;34053;51.088;6.572;2023-08-07T06:33:51;100822.22;;;13.18;87.57
48244;BME280;34053;51.088;6.572;2023-08-07T06:36:42;100823.03;;;13.20;87.62
48244;BME280;34053;51.088;6.572;2023-08-07T06:39:33;100838.50;;;13.30;87.00
48244;BME280;34053;51.088;6.572;2023-08-07T06:42:23;100833.81;;;13.38;86.31
48244;BME280;34053;51.088;6.572;2023-08-07T06:45:14;100853.88;;;13.17;87.78
48244;BME280;34053;51.088;6.572;2023-08-07T06:48:05;100854.06;;;13.12;88.45
48244;BME280;34053;51.088;6.572;2023-08-07T06:50:56;100847.03;;;13.13;88.01
48244;BME280;34053;51.088;6.572;2023-08-07T06:53:46;100859.88;;;13.22;88.43
48244;BME280;34053;51.088;6.572;2023-08-07T06:56:37;100855.19;;;13.30;87.67
48244;BME280;34053;51.088;6.572;2023-08-07T06:59:31;100867.56;;;13.27;88.49
48244;BME280;34053;51.088;6.572;2023-08-07T07:02:22;100860.94;;;13.16;89.15
48244;BME280;34053;51.088;6.572;2023-08-07T07:05:13;100865.16;;;13.20;89.39
48244;BME280;34053;51.088;6.572;2023-08-07T07:08:04;100871.03;;;13.29;89.32
48244;BME280;34053;51.088;6.572;2023-08-07T07:10:55;100870.56;;;13.17;89.90
48244;BME280;34053;51.088;6.572;2023-08-07T07:13:47;100880.97;;;13.20;90.36
48244;BME280;34053;51.088;6.572;2023-08-07T07:16:38;100887.50;;;13.35;88.79
48244;BME280;34053;51.088;6.572;2023-08-07T07:19:29;100887.81;;;13.26;90.28
48244;BME280;34053;51.088;6.572;2023-08-07T07:22:20;100886.50;;;13.38;90.11
48244;BME280;34053;51.088;6.572;2023-08-07T07:25:11;100879.31;;;13.43;89.68
48244;BME280;34053;51.088;6.572;2023-08-07T07:28:01;100877.47;;;13.47;89.58
48244;BME280;34053;51.088;6.572;2023-08-07T07:30:52;100895.03;;;13.46;88.69
48244;BME280;34053;51.088;6.572;2023-08-07T07:33:43;100888.19;;;13.41;89.79
48244;BME280;34053;51.088;6.572;2023-08-07T07:36:34;100896.75;;;13.47;89.60
48244;BME280;34053;51.088;6.572;2023-08-07T07:39:25;100902.78;;;13.51;88.93
48244;BME280;34053;51.088;6.572;2023-08-07T07:42:15;100896.66;;;13.50;88.99
48244;BME280;34053;51.088;6.572;2023-08-07T07:45:06;100899.75;;;13.62;88.44
48244;BME280;34053;51.088;6.572;2023-08-07T07:47:57;100904.66;;;13.71;86.81
48244;BME280;34053;51.088;6.572;2023-08-07T07:50:48;100909.44;;;13.61;87.38
48244;BME280;34053;51.088;6.572;2023-08-07T07:53:39;100912.59;;;13.71;86.84
48244;BME280;34053;51.088;6.572;2023-08-07T07:56:29;100918.66;;;13.73;87.46
48244;BME280;34053;51.088;6.572;2023-08-07T07:59:20;100915.22;;;13.71;87.61
48244;BME280;34053;51.088;6.572;2023-08-07T08:02:11;100923.63;;;13.81;87.15
48244;BME280;34053;51.088;6.572;2023-08-07T08:05:02;100919.06;;;13.86;86.32
48244;BME280;34053;51.088;6.572;2023-08-07T08:07:53;100926.28;;;13.81;86.89
48244;BME280;34053;51.088;6.572;2023-08-07T08:10:45;100918.50;;;13.78;86.74
48244;BME280;34053;51.088;6.572;2023-08-07T08:13:38;100936.91;;;13.79;86.28
48244;BME280;34053;51.088;6.572;2023-08-07T08:16:31;100933.41;;;13.79;86.35
48244;BME280;34053;51.088;6.572;2023-08-07T08:19:22;100941.81;;;13.89;85.81
48244;BME280;34053;51.088;6.572;2023-08-07T08:22:13;100940.09;;;13.88;85.45
48244;BME280;34053;51.088;6.572;2023-08-07T08:25:04;100942.63;;;13.91;85.46
48244;BME280;34053;51.088;6.572;2023-08-07T08:27:55;100937.59;;;14.08;86.12
48244;BME280;34053;51.088;6.572;2023-08-07T08:30:46;100944.75;;;14.05;85.73
48244;BME280;34053;51.088;6.572;2023-08-07T08:33:37;100945.19;;;14.16;86.53
48244;BME280;34053;51.088;6.572;2023-08-07T08:36:27;100950.19;;;14.24;85.07
48244;BME280;34053;51.088;6.572;2023-08-07T08:39:18;100950.94;;;14.27;85.31
48244;BME280;34053;51.088;6.572;2023-08-07T08:42:11;100961.06;;;14.38;84.24
48244;BME280;34053;51.088;6.572;2023-08-07T08:45:04;100966.16;;;14.43;82.73
48244;BME280;34053;51.088;6.572;2023-08-07T08:48:02;100976.59;;;14.46;83.07
48244;BME280;34053;51.088;6.572;2023-08-07T08:50:53;100982.06;;;14.41;84.10
48244;BME280;34053;51.088;6.572;2023-08-07T08:53:47;100984.22;;;14.54;84.15
48244;BME280;34053;51.088;6.572;2023-08-07T08:56:39;100994.66;;;14.57;83.30
48244;BME280;34053;51.088;6.572;2023-08-07T08:59:30;100998.16;;;14.57;83.28
48244;BME280;34053;51.088;6.572;2023-08-07T09:02:22;100998.56;;;14.70;84.28
48244;BME280;34053;51.088;6.572;2023-08-07T09:05:18;100991.84;;;14.84;83.99
48244;BME280;34053;51.088;6.572;2023-08-07T09:08:10;101008.31;;;14.90;81.67
48244;BME280;34053;51.088;6.572;2023-08-07T09:11:02;100994.50;;;14.84;81.68
48244;BME280;34053;51.088;6.572;2023-08-07T09:13:53;101016.31;;;14.89;81.73
48244;BME280;34053;51.088;6.572;2023-08-07T09:16:47;101016.34;;;15.09;81.37
48244;BME280;34053;51.088;6.572;2023-08-07T09:19:38;101013.84;;;15.06;80.15
48244;BME280;34053;51.088;6.572;2023-08-07T09:22:29;101007.13;;;14.98;78.85
48244;BME280;34053;51.088;6.572;2023-08-07T09:25:30;101018.88;;;15.13;79.32
48244;BME280;34053;51.088;6.572;2023-08-07T09:28:21;101017.16;;;15.11;78.43
48244;BME280;34053;51.088;6.572;2023-08-07T09:31:14;101024.16;;;15.13;78.65
48244;BME280;34053;51.088;6.572;2023-08-07T09:34:05;101032.50;;;15.24;77.52
48244;BME280;34053;51.088;6.572;2023-08-07T09:36:56;101035.34;;;15.19;76.30
48244;BME280;34053;51.088;6.572;2023-08-07T09:39:47;101022.59;;;15.29;77.13
48244;BME280;34053;51.088;6.572;2023-08-07T09:42:38;101032.84;;;15.37;76.72
48244;BME280;34053;51.088;6.572;2023-08-07T09:45:28;101028.03;;;15.47;75.66
48244;BME280;34053;51.088;6.572;2023-08-07T09:48:24;101035.16;;;15.45;74.72
48244;BME280;34053;51.088;6.572;2023-08-07T09:51:16;101039.34;;;15.50;73.78
48244;BME280;34053;51.088;6.572;2023-08-07T09:54:07;101022.28;;;15.57;74.74
48244;BME280;34053;51.088;6.572;2023-08-07T09:56:58;101032.84;;;15.57;74.51
48244;BME280;34053;51.088;6.572;2023-08-07T09:59:49;101029.88;;;15.65;74.67
48244;BME280;34053;51.088;6.572;2023-08-07T10:02:43;101027.78;;;15.73;72.52
48244;BME280;34053;51.088;6.572;2023-08-07T10:05:34;101026.69;;;15.78;73.14
48244;BME280;34053;51.088;6.572;2023-08-07T10:08:25;101025.41;;;15.88;73.22
48244;BME280;34053;51.088;6.572;2023-08-07T10:11:17;101026.31;;;15.87;71.05
48244;BME280;34053;51.088;6.572;2023-08-07T10:14:08;101029.88;;;16.07;70.39
48244;BME280;34053;51.088;6.572;2023-08-07T10:16:59;101039.66;;;16.04;69.46
48244;BME280;34053;51.088;6.572;2023-08-07T10:19:53;101031.44;;;16.11;67.23
48244;BME280;34053;51.088;6.572;2023-08-07T10:22:44;101027.94;;;16.10;67.07
48244;BME280;34053;51.088;6.572;2023-08-07T10:25:37;101026.53;;;16.22;67.22
48244;BME280;34053;51.088;6.572;2023-08-07T10:28:31;101033.84;;;16.36;67.84
48244;BME280;34053;51.088;6.572;2023-08-07T10:31:24;101028.81;;;16.30;67.38
48244;BME280;34053;51.088;6.572;2023-08-07T10:34:15;101030.19;;;16.39;67.09
48244;BME280;34053;51.088;6.572;2023-08-07T10:37:07;101031.09;;;16.38;65.32
48244;BME280;34053;51.088;6.572;2023-08-07T10:40:02;101033.88;;;16.34;66.42
48244;BME280;34053;51.088;6.572;2023-08-07T10:45:45;101030.69;;;16.47;67.09
48244;BME280;34053;51.088;6.572;2023-08-07T10:51:30;101036.47;;;16.55;65.50
48244;BME280;34053;51.088;6.572;2023-08-07T10:54:23;101046.16;;;16.56;63.08
48244;BME280;34053;51.088;6.572;2023-08-07T10:57:16;101046.25;;;16.72;62.64
48244;BME280;34053;51.088;6.572;2023-08-07T11:00:07;101045.09;;;16.78;62.72
48244;BME280;34053;51.088;6.572;2023-08-07T11:03:03;101050.53;;;16.75;62.04
48244;BME280;34053;51.088;6.572;2023-08-07T11:05:57;101053.13;;;16.76;62.51
48244;BME280;34053;51.088;6.572;2023-08-07T11:08:49;101051.81;;;16.85;63.26
48244;BME280;34053;51.088;6.572;2023-08-07T11:11:42;101054.16;;;16.93;62.48
48244;BME280;34053;51.088;6.572;2023-08-07T11:14:33;101054.63;;;17.01;62.14
48244;BME280;34053;51.088;6.572;2023-08-07T11:17:25;101055.47;;;17.02;60.95
48244;BME280;34053;51.088;6.572;2023-08-07T11:20:16;101057.28;;;17.01;62.64
48244;BME280;34053;51.088;6.572;2023-08-07T11:23:07;101071.72;;;17.13;62.05
48244;BME280;34053;51.088;6.572;2023-08-07T11:25:58;101058.88;;;17.23;58.05
48244;BME280;34053;51.088;6.572;2023-08-07T11:28:49;101063.25;;;17.24;59.24
48244;BME280;34053;51.088;6.572;2023-08-07T11:31:40;101055.75;;;17.32;57.08
48244;BME280;34053;51.088;6.572;2023-08-07T11:34:31;101054.03;;;17.31;58.91
48244;BME280;34053;51.088;6.572;2023-08-07T11:37:22;101050.06;;;17.40;59.13
48244;BME280;34053;51.088;6.572;2023-08-07T11:40:13;101043.06;;;17.39;58.65
48244;BME280;34053;51.088;6.572;2023-08-07T11:43:04;101048.66;;;17.50;57.25
48244;BME280;34053;51.088;6.572;2023-08-07T11:45:56;101052.34;;;17.65;57.06
48244;BME280;34053;51.088;6.572;2023-08-07T11:48:47;101053.03;;;17.69;55.76
48244;BME280;34053;51.088;6.572;2023-08-07T11:51:38;101050.94;;;17.75;55.80
48244;BME280;34053;51.088;6.572;2023-08-07T11:54:29;101048.31;;;17.91;55.14
48244;BME280;34053;51.088;6.572;2023-08-07T11:57:20;101049.09;;;17.93;55.22
48244;BME280;34053;51.088;6.572;2023-08-07T12:00:11;101046.69;;;18.06;54.07
48244;BME280;34053;51.088;6.572;2023-08-07T12:03:25;101040.50;;;18.06;55.71
48244;BME280;34053;51.088;6.572;2023-08-07T12:06:17;101049.09;;;18.27;53.84
48244;BME280;34053;51.088;6.572;2023-08-07T12:09:08;101050.50;;;18.34;53.68
48244;BME280;34053;51.088;6.572;2023-08-07T12:12:03;101041.75;;;18.48;52.93
48244;BME280;34053;51.088;6.572;2023-08-07T12:14:54;101047.06;;;18.48;54.14
48244;BME280;34053;51.088;6.572;2023-08-07T12:17:46;101047.56;;;18.39;50.73
48244;BME280;34053;51.088;6.572;2023-08-07T12:20:36;101045.19;;;18.50;51.31
48244;BME280;34053;51.088;6.572;2023-08-07T12:23:27;101057.38;;;18.54;49.78
48244;BME280;34053;51.088;6.572;2023-08-07T12:26:18;101046.91;;;18.51;52.65
48244;BME280;34053;51.088;6.572;2023-08-07T12:29:09;101061.28;;;18.47;53.70
48244;BME280;34053;51.088;6.572;2023-08-07T12:32:00;101063.19;;;18.61;54.09
48244;BME280;34053;51.088;6.572;2023-08-07T12:34:52;101057.72;;;18.64;51.90
48244;BME280;34053;51.088;6.572;2023-08-07T12:37:44;101057.28;;;18.72;52.33
48244;BME280;34053;51.088;6.572;2023-08-07T12:40:35;101048.97;;;18.94;49.85
48244;BME280;34053;51.088;6.572;2023-08-07T12:43:27;101059.28;;;19.00;48.62
48244;BME280;34053;51.088;6.572;2023-08-07T12:46:18;101048.91;;;18.96;49.72
48244;BME280;34053;51.088;6.572;2023-08-07T12:49:09;101041.56;;;19.15;50.75
48244;BME280;34053;51.088;6.572;2023-08-07T12:52:00;101053.78;;;19.34;49.21
48244;BME280;34053;51.088;6.572;2023-08-07T12:54:51;101047.16;;;19.41;52.51
48244;BME280;34053;51.088;6.572;2023-08-07T12:57:42;101050.25;;;19.64;50.61
48244;BME280;34053;51.088;6.572;2023-08-07T13:00:33;101054.94;;;19.75;50.66
48244;BME280;34053;51.088;6.572;2023-08-07T13:03:24;101042.19;;;19.80;48.95
48244;BME280;34053;51.088;6.572;2023-08-07T13:06:15;101059.44;;;19.89;48.10
48244;BME280;34053;51.088;6.572;2023-08-07T13:09:05;101066.88;;;19.98;47.87
48244;BME280;34053;51.088;6.572;2023-08-07T13:11:56;101061.53;;;19.98;48.87
48244;BME280;34053;51.088;6.572;2023-08-07T13:14:47;101064.78;;;20.18;48.91
48244;BME280;34053;51.088;6.572;2023-08-07T13:17:38;101062.69;;;20.08;49.95
48244;BME280;34053;51.088;6.572;2023-08-07T13:20:28;101065.53;;;20.05;49.16
48244;BME280;34053;51.088;6.572;2023-08-07T13:23:24;101058.97;;;20.11;48.54
48244;BME280;34053;51.088;6.572;2023-08-07T13:26:14;101062.91;;;20.20;50.50
48244;BME280;34053;51.088;6.572;2023-08-07T13:29:06;101057.44;;;20.36;50.54
48244;BME280;34053;51.088;6.572;2023-08-07T13:31:57;101063.03;;;20.60;51.13
48244;BME280;34053;51.088;6.572;2023-08-07T13:34:48;101056.38;;;20.53;50.35
48244;BME280;34053;51.088;6.572;2023-08-07T13:37:38;101053.31;;;20.73;52.07
48244;BME280;34053;51.088;6.572;2023-08-07T13:40:29;101060.25;;;20.76;51.40
48244;BME280;34053;51.088;6.572;2023-08-07T13:43:20;101055.84;;;20.89;50.28
48244;BME280;34053;51.088;6.572;2023-08-07T13:46:11;101064.91;;;20.72;50.36
48244;BME280;34053;51.088;6.572;2023-08-07T13:49:01;101063.50;;;20.52;49.53
48244;BME280;34053;51.088;6.572;2023-08-07T13:51:52;101076.75;;;20.39;52.35
48244;BME280;34053;51.088;6.572;2023-08-07T13:54:43;101091.59;;;20.29;52.71
48244;BME280;34053;51.088;6.572;2023-08-07T13:57:34;101089.03;;;20.27;53.28
48244;BME280;34053;51.088;6.572;2023-08-07T14:00:25;101090.47;;;20.19;52.99
48244;BME280;34053;51.088;6.572;2023-08-07T14:03:16;101092.44;;;20.01;53.00
48244;BME280;34053;51.088;6.572;2023-08-07T14:06:07;101091.72;;;20.13;53.24
48244;BME280;34053;51.088;6.572;2023-08-07T14:08:58;101105.13;;;20.11;52.80
48244;BME280;34053;51.088;6.572;2023-08-07T14:11:49;101085.22;;;20.03;53.08
48244;BME280;34053;51.088;6.572;2023-08-07T14:14:40;101079.72;;;20.20;53.26
48244;BME280;34053;51.088;6.572;2023-08-07T14:17:31;101086.44;;;19.97;50.95
48244;BME280;34053;51.088;6.572;2023-08-07T14:20:22;101087.72;;;19.91;52.12
48244;BME280;34053;51.088;6.572;2023-08-07T14:23:13;101097.31;;;20.08;52.98
48244;BME280;34053;51.088;6.572;2023-08-07T14:26:04;101087.44;;;20.10;53.54
48244;BME280;34053;51.088;6.572;2023-08-07T14:28:55;101090.00;;;20.26;53.47
48244;BME280;34053;51.088;6.572;2023-08-07T14:31:45;101089.69;;;20.45;53.13
48244;BME280;34053;51.088;6.572;2023-08-07T14:34:36;101085.03;;;20.35;52.66
48244;BME280;34053;51.088;6.572;2023-08-07T14:37:27;101093.53;;;20.27;53.68
48244;BME280;34053;51.088;6.572;2023-08-07T14:40:18;101084.31;;;20.33;53.69
48244;BME280;34053;51.088;6.572;2023-08-07T14:43:09;101089.50;;;19.91;52.44
48244;BME280;34053;51.088;6.572;2023-08-07T14:46:01;101095.88;;;20.03;52.96
48244;BME280;34053;51.088;6.572;2023-08-07T14:48:52;101086.84;;;20.05;52.81
48244;BME280;34053;51.088;6.572;2023-08-07T14:51:42;101093.59;;;20.11;53.51
48244;BME280;34053;51.088;6.572;2023-08-07T14:54:33;101087.59;;;20.07;53.34
48244;BME280;34053;51.088;6.572;2023-08-07T14:57:24;101086.78;;;20.07;53.13
48244;BME280;34053;51.088;6.572;2023-08-07T15:00:15;101099.97;;;20.08;54.08
48244;BME280;34053;51.088;6.572;2023-08-07T15:03:07;101100.16;;;20.05;53.81